sensor_id;sensor_type;location;lat;lon;timestamp;pressure;altitude;pressure_sealevel;temperature;humidity
15884;BME280;8040;50.254;10.960;2023-11-21T00:00:08;97587.38;;;10.84;85.55
15884;BME280;8040;50.254;10.960;2023-11-21T00:02:37;97585.28;;;10.81;85.57
15884;BME280;8040;50.254;10.960;2023-11-21T00:05:07;97594.84;;;10.79;86.19
15884;BME280;8040;50.254;10.960;2023-11-21T00:07:33;97589.28;;;10.84;86.26
15884;BME280;8040;50.254;10.960;2023-11-21T00:09:58;97583.19;;;10.87;86.06
15884;BME280;8040;50.254;10.960;2023-11-21T00:12:24;97590.88;;;10.85;86.13
15884;BME280;8040;50.254;10.960;2023-11-21T00:14:49;97584.97;;;10.83;85.91
15884;BME280;8040;50.254;10.960;2023-11-21T00:17:15;97591.34;;;10.78;85.67
15884;BME280;8040;50.254;10.960;2023-11-21T00:19:40;97582.41;;;10.78;85.47
15884;BME280;8040;50.254;10.960;2023-11-21T00:22:05;97581.09;;;10.67;86.44
15884;BME280;8040;50.254;10.960;2023-11-21T00:24:32;97582.53;;;10.64;86.25
15884;BME280;8040;50.254;10.960;2023-11-21T00:26:57;97583.81;;;10.67;86.36
15884;BME280;8040;50.254;10.960;2023-11-21T00:29:22;97582.06;;;10.71;86.47
15884;BME280;8040;50.254;10.960;2023-11-21T00:31:48;97584.66;;;10.76;86.06
15884;BME280;8040;50.254;10.960;2023-11-21T00:34:13;97586.84;;;10.74;86.02
15884;BME280;8040;50.254;10.960;2023-11-21T00:36:39;97581.78;;;10.72;86.98
15884;BME280;8040;50.254;10.960;2023-11-21T00:39:05;97580.47;;;10.70;87.00
15884;BME280;8040;50.254;10.960;2023-11-21T00:41:31;97580.47;;;10.70;86.70
15884;BME280;8040;50.254;10.960;2023-11-21T00:43:56;97589.06;;;10.63;85.53
15884;BME280;8040;50.254;10.960;2023-11-21T00:46:22;97591.16;;;10.66;85.96
15884;BME280;8040;50.254;10.960;2023-11-21T00:48:50;97594.03;;;10.70;85.93
15884;BME280;8040;50.254;10.960;2023-11-21T00:51:15;97596.41;;;10.71;85.67
15884;BME280;8040;50.254;10.960;2023-11-21T00:53:40;97590.69;;;10.73;86.10
15884;BME280;8040;50.254;10.960;2023-11-21T00:56:06;97592.28;;;10.74;85.59
15884;BME280;8040;50.254;10.960;2023-11-21T00:58:33;97590.53;;;10.69;85.44
15884;BME280;8040;50.254;10.960;2023-11-21T01:00:58;97591.34;;;10.70;84.72
15884;BME280;8040;50.254;10.960;2023-11-21T01:03:24;97592.94;;;10.71;84.64
15884;BME280;8040;50.254;10.960;2023-11-21T01:05:49;97601.03;;;10.62;84.60
15884;BME280;8040;50.254;10.960;2023-11-21T01:08:15;97598.63;;;10.61;85.14
15884;BME280;8040;50.254;10.960;2023-11-21T01:10:40;97598.00;;;10.55;85.32
15884;BME280;8040;50.254;10.960;2023-11-21T01:13:06;97602.28;;;10.56;86.44
15884;BME280;8040;50.254;10.960;2023-11-21T01:15:32;97601.66;;;10.51;86.21
15884;BME280;8040;50.254;10.960;2023-11-21T01:17:57;97599.41;;;10.53;86.88
15884;BME280;8040;50.254;10.960;2023-11-21T01:20:22;97605.97;;;10.52;87.81
15884;BME280;8040;50.254;10.960;2023-11-21T01:22:48;97608.34;;;10.62;87.74
15884;BME280;8040;50.254;10.960;2023-11-21T01:25:14;97600.38;;;10.65;87.36
15884;BME280;8040;50.254;10.960;2023-11-21T01:27:41;97596.41;;;10.63;87.07
15884;BME280;8040;50.254;10.960;2023-11-21T01:30:07;97602.31;;;10.65;87.35
15884;BME280;8040;50.254;10.960;2023-11-21T01:35:55;97600.75;;;10.72;86.74
15884;BME280;8040;50.254;10.960;2023-11-21T01:38:21;97598.16;;;10.59;86.26
15884;BME280;8040;50.254;10.960;2023-11-21T01:40:46;97600.22;;;10.62;86.51
15884;BME280;8040;50.254;10.960;2023-11-21T01:43:11;97592.22;;;10.57;86.99
15884;BME280;8040;50.254;10.960;2023-11-21T01:45:36;97594.31;;;10.60;86.83
15884;BME280;8040;50.254;10.960;2023-11-21T01:48:02;97596.09;;;10.64;87.36
15884;BME280;8040;50.254;10.960;2023-11-21T01:50:28;97596.59;;;10.66;87.90
15884;BME280;8040;50.254;10.960;2023-11-21T01:52:53;97593.69;;;10.63;87.98
15884;BME280;8040;50.254;10.960;2023-11-21T01:55:19;97596.41;;;10.63;88.30
15884;BME280;8040;50.254;10.960;2023-11-21T01:57:45;97597.50;;;10.62;88.15
15884;BME280;8040;50.254;10.960;2023-11-21T02:00:11;97602.31;;;10.65;88.12
15884;BME280;8040;50.254;10.960;2023-11-21T02:02:47;97593.22;;;10.61;87.29
15884;BME280;8040;50.254;10.960;2023-11-21T02:05:13;97597.84;;;10.60;87.07
15884;BME280;8040;50.254;10.960;2023-11-21T02:07:39;97594.31;;;10.60;87.01
15884;BME280;8040;50.254;10.960;2023-11-21T02:10:06;97600.19;;;10.53;86.69
15884;BME280;8040;50.254;10.960;2023-11-21T02:12:32;97598.78;;;10.56;87.30
15884;BME280;8040;50.254;10.960;2023-11-21T02:14:57;97597.66;;;10.57;88.05
15884;BME280;8040;50.254;10.960;2023-11-21T02:17:24;97598.78;;;10.56;87.52
15884;BME280;8040;50.254;10.960;2023-11-21T02:19:50;97602.28;;;10.56;88.29
15884;BME280;8040;50.254;10.960;2023-11-21T02:22:17;97601.03;;;10.62;88.45
15884;BME280;8040;50.254;10.960;2023-11-21T02:24:43;97604.38;;;10.68;88.21
15884;BME280;8040;50.254;10.960;2023-11-21T02:27:08;97601.34;;;10.61;87.49
15884;BME280;8040;50.254;10.960;2023-11-21T02:29:33;97603.59;;;10.59;87.24
15884;BME280;8040;50.254;10.960;2023-11-21T02:31:58;97604.53;;;10.54;88.34
15884;BME280;8040;50.254;10.960;2023-11-21T02:34:25;97598.19;;;10.67;88.26
15884;BME280;8040;50.254;10.960;2023-11-21T02:36:50;97595.78;;;10.66;88.40
15884;BME280;8040;50.254;10.960;2023-11-21T02:39:16;97597.06;;;10.68;88.18
15884;BME280;8040;50.254;10.960;2023-11-21T02:41:42;97601.69;;;10.68;88.34
15884;BME280;8040;50.254;10.960;2023-11-21T02:44:07;97598.97;;;10.68;88.26
15884;BME280;8040;50.254;10.960;2023-11-21T02:46:33;97599.28;;;10.75;87.96
15884;BME280;8040;50.254;10.960;2023-11-21T02:49:02;97601.22;;;10.74;87.31
15884;BME280;8040;50.254;10.960;2023-11-21T02:51:28;97600.56;;;10.69;87.85
15884;BME280;8040;50.254;10.960;2023-11-21T02:53:54;97599.78;;;10.68;87.71
15884;BME280;8040;50.254;10.960;2023-11-21T02:56:19;97607.59;;;10.70;87.68
15884;BME280;8040;50.254;10.960;2023-11-21T02:58:46;97601.19;;;10.66;88.30
15884;BME280;8040;50.254;10.960;2023-11-21T03:01:11;97604.53;;;10.63;88.71
15884;BME280;8040;50.254;10.960;2023-11-21T03:03:38;97609.34;;;10.66;88.64
15884;BME280;8040;50.254;10.960;2023-11-21T03:06:05;97612.06;;;10.66;88.87
15884;BME280;8040;50.254;10.960;2023-11-21T03:08:31;97612.38;;;10.73;88.31
15884;BME280;8040;50.254;10.960;2023-11-21T03:10:57;97609.19;;;10.71;88.64
15884;BME280;8040;50.254;10.960;2023-11-21T03:13:22;97605.38;;;10.72;88.62
15884;BME280;8040;50.254;10.960;2023-11-21T03:15:48;97610.78;;;10.72;88.80
15884;BME280;8040;50.254;10.960;2023-11-21T03:18:13;97601.41;;;10.78;88.44
15884;BME280;8040;50.254;10.960;2023-11-21T03:24:02;97600.91;;;10.76;88.44
15884;BME280;8040;50.254;10.960;2023-11-21T03:26:28;97604.25;;;10.73;88.56
15884;BME280;8040;50.254;10.960;2023-11-21T03:28:54;97603.63;;;10.76;88.78
15884;BME280;8040;50.254;10.960;2023-11-21T03:31:20;97602.19;;;10.70;88.92
15884;BME280;8040;50.254;10.960;2023-11-21T03:33:46;97608.91;;;10.72;88.53
15884;BME280;8040;50.254;10.960;2023-11-21T03:36:12;97609.81;;;10.68;88.88
15884;BME280;8040;50.254;10.960;2023-11-21T03:38:38;97611.91;;;10.71;88.62
15884;BME280;8040;50.254;10.960;2023-11-21T03:41:03;97605.84;;;10.74;88.71
15884;BME280;8040;50.254;10.960;2023-11-21T03:43:28;97599.28;;;10.75;88.55
15884;BME280;8040;50.254;10.960;2023-11-21T03:45:55;97599.81;;;10.77;88.32
15884;BME280;8040;50.254;10.960;2023-11-21T03:48:22;97600.75;;;10.72;88.07
15884;BME280;8040;50.254;10.960;2023-11-21T03:50:48;97601.69;;;10.76;88.31
15884;BME280;8040;50.254;10.960;2023-11-21T03:53:13;97610.50;;;10.82;88.14
15884;BME280;8040;50.254;10.960;2023-11-21T03:55:39;97611.59;;;10.81;88.23
15884;BME280;8040;50.254;10.960;2023-11-21T03:58:04;97611.44;;;10.86;88.02
15884;BME280;8040;50.254;10.960;2023-11-21T04:00:29;97614.00;;;10.82;87.65
15884;BME280;8040;50.254;10.960;2023-11-21T04:02:55;97615.56;;;10.75;88.30
15884;BME280;8040;50.254;10.960;2023-11-21T04:05:20;97622.25;;;10.69;88.47
15884;BME280;8040;50.254;10.960;2023-11-21T04:07:48;97627.06;;;10.72;88.74
15884;BME280;8040;50.254;10.960;2023-11-21T04:10:13;97621.00;;;10.75;88.70
15884;BME280;8040;50.254;10.960;2023-11-21T04:12:38;97626.25;;;10.71;88.48
15884;BME280;8040;50.254;10.960;2023-11-21T04:15:04;97627.06;;;10.72;88.68
15884;BME280;8040;50.254;10.960;2023-11-21T04:17:29;97623.72;;;10.75;88.37
15884;BME280;8040;50.254;10.960;2023-11-21T04:19:54;97626.41;;;10.75;88.78
15884;BME280;8040;50.254;10.960;2023-11-21T04:22:20;97623.72;;;10.75;88.27
15884;BME280;8040;50.254;10.960;2023-11-21T04:24:45;97629.13;;;10.75;87.87
15884;BME280;8040;50.254;10.960;2023-11-21T04:27:10;97639.19;;;10.74;88.17
15884;BME280;8040;50.254;10.960;2023-11-21T04:29:36;97633.78;;;10.74;88.57
15884;BME280;8040;50.254;10.960;2023-11-21T04:32:01;97629.13;;;10.75;88.50
15884;BME280;8040;50.254;10.960;2023-11-21T04:34:28;97627.22;;;10.75;88.22
15884;BME280;8040;50.254;10.960;2023-11-21T04:36:55;97637.28;;;10.75;88.49
15884;BME280;8040;50.254;10.960;2023-11-21T04:39:21;97641.28;;;10.77;87.94
15884;BME280;8040;50.254;10.960;2023-11-21T04:41:46;97643.69;;;10.79;88.61
15884;BME280;8040;50.254;10.960;2023-11-21T04:44:11;97647.97;;;10.80;88.27
15884;BME280;8040;50.254;10.960;2023-11-21T04:46:36;97649.09;;;10.79;88.33
15884;BME280;8040;50.254;10.960;2023-11-21T04:49:02;97644.78;;;10.78;88.70
15884;BME280;8040;50.254;10.960;2023-11-21T04:51:28;97646.25;;;10.84;88.34
15884;BME280;8040;50.254;10.960;2023-11-21T04:53:54;97647.84;;;10.85;87.95
15884;BME280;8040;50.254;10.960;2023-11-21T04:56:19;97652.94;;;10.78;88.46
15884;BME280;8040;50.254;10.960;2023-11-21T04:58:45;97664.72;;;10.73;88.83
15884;BME280;8040;50.254;10.960;2023-11-21T05:01:10;97655.94;;;10.76;88.87
15884;BME280;8040;50.254;10.960;2023-11-21T05:03:35;97666.19;;;10.79;88.84
15884;BME280;8040;50.254;10.960;2023-11-21T05:06:01;97670.81;;;10.79;88.71
15884;BME280;8040;50.254;10.960;2023-11-21T05:08:26;97664.59;;;10.78;88.51
15884;BME280;8040;50.254;10.960;2023-11-21T05:10:52;97665.03;;;10.72;88.19
15884;BME280;8040;50.254;10.960;2023-11-21T05:13:18;97673.03;;;10.77;88.28
15884;BME280;8040;50.254;10.960;2023-11-21T05:15:44;97669.22;;;10.78;88.21
15884;BME280;8040;50.254;10.960;2023-11-21T05:18:09;97671.91;;;10.78;88.54
15884;BME280;8040;50.254;10.960;2023-11-21T05:20:35;97668.56;;;10.81;88.35
15884;BME280;8040;50.254;10.960;2023-11-21T05:23:01;97663.81;;;10.86;88.26
15884;BME280;8040;50.254;10.960;2023-11-21T05:25:26;97670.53;;;10.89;88.27
15884;BME280;8040;50.254;10.960;2023-11-21T05:27:51;97673.84;;;10.86;87.99
15884;BME280;8040;50.254;10.960;2023-11-21T05:30:18;97675.28;;;10.83;88.11
15884;BME280;8040;50.254;10.960;2023-11-21T05:32:43;97670.19;;;10.82;87.92
15884;BME280;8040;50.254;10.960;2023-11-21T05:35:09;97682.28;;;10.76;87.91
15884;BME280;8040;50.254;10.960;2023-11-21T05:37:37;97679.41;;;10.72;87.89
15884;BME280;8040;50.254;10.960;2023-11-21T05:40:04;97684.03;;;10.72;88.08
15884;BME280;8040;50.254;10.960;2023-11-21T05:42:34;97681.31;;;10.72;88.27
15884;BME280;8040;50.254;10.960;2023-11-21T05:45:00;97682.28;;;10.76;87.92
15884;BME280;8040;50.254;10.960;2023-11-21T05:47:36;97682.47;;;10.79;87.70
15884;BME280;8040;50.254;10.960;2023-11-21T05:50:01;97680.19;;;10.73;88.13
15884;BME280;8040;50.254;10.960;2023-11-21T05:52:27;97677.00;;;10.71;88.14
15884;BME280;8040;50.254;10.960;2023-11-21T05:54:52;97681.63;;;10.70;88.47
15884;BME280;8040;50.254;10.960;2023-11-21T05:57:17;97673.16;;;10.63;88.40
15884;BME280;8040;50.254;10.960;2023-11-21T05:59:43;97686.75;;;10.72;88.36
15884;BME280;8040;50.254;10.960;2023-11-21T06:02:08;97688.03;;;10.74;88.11
15884;BME280;8040;50.254;10.960;2023-11-21T06:04:34;97687.56;;;10.72;88.26
15884;BME280;8040;50.254;10.960;2023-11-21T06:06:59;97688.34;;;10.73;88.02
15884;BME280;8040;50.254;10.960;2023-11-21T06:09:25;97703.63;;;10.69;88.23
15884;BME280;8040;50.254;10.960;2023-11-21T06:11:51;97705.41;;;10.73;87.82
15884;BME280;8040;50.254;10.960;2023-11-21T06:14:16;97710.22;;;10.76;87.98
15884;BME280;8040;50.254;10.960;2023-11-21T06:16:43;97710.34;;;10.71;88.02
15884;BME280;8040;50.254;10.960;2023-11-21T06:19:10;97711.63;;;10.74;88.47
15884;BME280;8040;50.254;10.960;2023-11-21T06:21:35;97715.28;;;10.69;88.68
15884;BME280;8040;50.254;10.960;2023-11-21T06:24:00;97719.28;;;10.72;88.47
15884;BME280;8040;50.254;10.960;2023-11-21T06:26:26;97717.56;;;10.76;88.07
15884;BME280;8040;50.254;10.960;2023-11-21T06:28:52;97714.69;;;10.81;87.80
15884;BME280;8040;50.254;10.960;2023-11-21T06:31:18;97723.31;;;10.83;87.52
15884;BME280;8040;50.254;10.960;2023-11-21T06:33:43;97723.81;;;10.85;87.14
15884;BME280;8040;50.254;10.960;2023-11-21T06:36:08;97742.00;;;10.84;87.49
15884;BME280;8040;50.254;10.960;2023-11-21T06:38:36;97734.19;;;10.83;87.58
15884;BME280;8040;50.254;10.960;2023-11-21T06:41:02;97740.56;;;10.87;87.35
15884;BME280;8040;50.254;10.960;2023-11-21T06:43:27;97747.09;;;10.86;87.15
15884;BME280;8040;50.254;10.960;2023-11-21T06:45:52;97747.59;;;10.88;86.94
15884;BME280;8040;50.254;10.960;2023-11-21T06:48:18;97748.69;;;10.87;87.21
15884;BME280;8040;50.254;10.960;2023-11-21T06:50:43;97746.50;;;10.89;87.00
15884;BME280;8040;50.254;10.960;2023-11-21T06:53:09;97746.81;;;10.87;87.02
15884;BME280;8040;50.254;10.960;2023-11-21T06:55:36;97750.50;;;10.91;86.77
15884;BME280;8040;50.254;10.960;2023-11-21T06:58:01;97749.06;;;10.94;87.10
15884;BME280;8040;50.254;10.960;2023-11-21T07:00:27;97753.03;;;10.96;87.05
15884;BME280;8040;50.254;10.960;2023-11-21T07:02:55;97762.13;;;10.92;86.97
15884;BME280;8040;50.254;10.960;2023-11-21T07:05:20;97765.47;;;10.89;86.70
15884;BME280;8040;50.254;10.960;2023-11-21T07:07:46;97769.94;;;10.85;86.68
15884;BME280;8040;50.254;10.960;2023-11-21T07:10:13;97775.22;;;10.90;87.15
15884;BME280;8040;50.254;10.960;2023-11-21T07:12:38;97780.78;;;10.85;85.73
15884;BME280;8040;50.254;10.960;2023-11-21T07:15:05;97786.50;;;10.83;85.46
15884;BME280;8040;50.254;10.960;2023-11-21T07:17:37;97785.09;;;10.86;85.70
15884;BME280;8040;50.254;10.960;2023-11-21T07:20:02;97792.09;;;10.87;85.41
15884;BME280;8040;50.254;10.960;2023-11-21T07:22:28;97786.50;;;10.83;86.00
15884;BME280;8040;50.254;10.960;2023-11-21T07:24:53;97793.69;;;10.79;86.09
15884;BME280;8040;50.254;10.960;2023-11-21T07:27:19;97797.00;;;10.76;86.05
15884;BME280;8040;50.254;10.960;2023-11-21T07:29:44;97790.28;;;10.74;85.84
15884;BME280;8040;50.254;10.960;2023-11-21T07:32:10;97795.41;;;10.75;85.79
15884;BME280;8040;50.254;10.960;2023-11-21T07:34:36;97802.91;;;10.70;85.44
15884;BME280;8040;50.254;10.960;2023-11-21T07:37:01;97811.34;;;10.68;85.31
15884;BME280;8040;50.254;10.960;2023-11-21T07:39:27;97814.34;;;10.67;85.75
15884;BME280;8040;50.254;10.960;2023-11-21T07:41:52;97789.41;;;10.56;86.30
15884;BME280;8040;50.254;10.960;2023-11-21T07:44:17;97804.78;;;10.69;87.03
15884;BME280;8040;50.254;10.960;2023-11-21T07:46:43;97810.28;;;10.78;87.40
15884;BME280;8040;50.254;10.960;2023-11-21T07:49:15;97812.16;;;10.77;87.32
15884;BME280;8040;50.254;10.960;2023-11-21T07:51:45;97821.72;;;10.75;87.01
15884;BME280;8040;50.254;10.960;2023-11-21T07:54:11;97823.53;;;10.79;86.38
15884;BME280;8040;50.254;10.960;2023-11-21T07:56:36;97816.19;;;10.80;86.92
15884;BME280;8040;50.254;10.960;2023-11-21T07:59:01;97824.50;;;10.83;87.35
15884;BME280;8040;50.254;10.960;2023-11-21T08:01:27;97826.28;;;10.88;87.27
15884;BME280;8040;50.254;10.960;2023-11-21T08:03:53;97833.31;;;10.89;86.88
15884;BME280;8040;50.254;10.960;2023-11-21T08:06:21;97833.13;;;10.85;86.51
15884;BME280;8040;50.254;10.960;2023-11-21T08:08:46;97831.03;;;10.82;85.78
15884;BME280;8040;50.254;10.960;2023-11-21T08:11:14;97832.44;;;10.80;85.55
15884;BME280;8040;50.254;10.960;2023-11-21T08:13:39;97835.81;;;10.77;85.76
15884;BME280;8040;50.254;10.960;2023-11-21T08:16:04;97839.28;;;10.77;85.79
15884;BME280;8040;50.254;10.960;2023-11-21T08:18:32;97856.25;;;10.83;85.81
15884;BME280;8040;50.254;10.960;2023-11-21T08:20:57;97827.44;;;10.65;85.70
15884;BME280;8040;50.254;10.960;2023-11-21T08:23:23;97855.34;;;10.65;84.76
15884;BME280;8040;50.254;10.960;2023-11-21T08:25:52;97769.66;;;10.12;84.26
15884;BME280;8040;50.254;10.960;2023-11-21T08:28:18;97839.28;;;10.47;84.38
15884;BME280;8040;50.254;10.960;2023-11-21T08:30:44;97823.75;;;10.39;85.10
15884;BME280;8040;50.254;10.960;2023-11-21T08:33:12;97840.38;;;10.46;85.38
15884;BME280;8040;50.254;10.960;2023-11-21T08:35:38;97816.97;;;10.28;84.51
15884;BME280;8040;50.254;10.960;2023-11-21T08:38:04;97840.50;;;10.41;83.59
15884;BME280;8040;50.254;10.960;2023-11-21T08:40:29;97872.41;;;10.66;83.40
15884;BME280;8040;50.254;10.960;2023-11-21T08:42:55;97867.81;;;10.66;84.10
15884;BME280;8040;50.254;10.960;2023-11-21T08:45:21;97807.47;;;10.39;83.83
15884;BME280;8040;50.254;10.960;2023-11-21T08:47:47;97878.63;;;10.88;83.09
15884;BME280;8040;50.254;10.960;2023-11-21T08:50:13;97854.03;;;10.85;82.69
15884;BME280;8040;50.254;10.960;2023-11-21T08:52:40;97826.78;;;10.68;82.43
15884;BME280;8040;50.254;10.960;2023-11-21T08:55:06;97858.69;;;10.84;81.24
15884;BME280;8040;50.254;10.960;2023-11-21T08:57:38;97842.28;;;10.67;80.70
15884;BME280;8040;50.254;10.960;2023-11-21T09:00:06;97844.25;;;10.75;81.04
15884;BME280;8040;50.254;10.960;2023-11-21T09:02:38;97859.47;;;10.85;81.05
15884;BME280;8040;50.254;10.960;2023-11-21T09:05:05;97797.59;;;10.43;81.54
15884;BME280;8040;50.254;10.960;2023-11-21T09:07:31;97852.44;;;10.84;82.07
15884;BME280;8040;50.254;10.960;2023-11-21T09:09:56;97871.47;;;10.92;81.64
15884;BME280;8040;50.254;10.960;2023-11-21T09:12:22;97877.34;;;10.86;81.84
15884;BME280;8040;50.254;10.960;2023-11-21T09:14:50;97809.69;;;10.37;81.55
15884;BME280;8040;50.254;10.960;2023-11-21T09:17:17;97823.94;;;10.42;81.87
15884;BME280;8040;50.254;10.960;2023-11-21T09:19:42;97812.22;;;10.33;81.75
15884;BME280;8040;50.254;10.960;2023-11-21T09:22:14;97886.34;;;10.73;82.14
15884;BME280;8040;50.254;10.960;2023-11-21T09:24:40;97882.59;;;10.82;82.70
15884;BME280;8040;50.254;10.960;2023-11-21T09:27:05;97887.47;;;10.72;81.89
15884;BME280;8040;50.254;10.960;2023-11-21T09:29:31;97887.53;;;10.80;81.52
15884;BME280;8040;50.254;10.960;2023-11-21T09:31:57;97894.25;;;10.83;82.21
15884;BME280;8040;50.254;10.960;2023-11-21T09:34:24;97893.06;;;10.75;81.14
15884;BME280;8040;50.254;10.960;2023-11-21T09:36:50;97882.41;;;10.79;81.20
15884;BME280;8040;50.254;10.960;2023-11-21T09:39:16;97886.94;;;10.92;81.71
15884;BME280;8040;50.254;10.960;2023-11-21T09:41:49;97897.69;;;10.97;80.66
15884;BME280;8040;50.254;10.960;2023-11-21T09:44:17;97894.97;;;10.97;80.26
15884;BME280;8040;50.254;10.960;2023-11-21T09:46:43;97892.50;;;10.87;78.29
15884;BME280;8040;50.254;10.960;2023-11-21T09:49:09;97901.63;;;10.69;77.91
15884;BME280;8040;50.254;10.960;2023-11-21T09:51:38;97905.50;;;10.76;77.80
15884;BME280;8040;50.254;10.960;2023-11-21T09:54:05;97909.41;;;10.84;79.96
15884;BME280;8040;50.254;10.960;2023-11-21T09:56:32;97911.31;;;10.83;79.28
15884;BME280;8040;50.254;10.960;2023-11-21T10:02:22;97914.03;;;10.83;79.00
15884;BME280;8040;50.254;10.960;2023-11-21T10:04:51;97916.50;;;10.93;78.88
15884;BME280;8040;50.254;10.960;2023-11-21T10:07:17;97914.63;;;11.02;78.66
15884;BME280;8040;50.254;10.960;2023-11-21T10:09:44;97909.88;;;11.08;78.27
15884;BME280;8040;50.254;10.960;2023-11-21T10:12:09;97914.69;;;11.11;77.10
15884;BME280;8040;50.254;10.960;2023-11-21T10:14:35;97921.56;;;11.17;77.60
15884;BME280;8040;50.254;10.960;2023-11-21T10:17:02;97920.69;;;11.30;77.07
15884;BME280;8040;50.254;10.960;2023-11-21T10:19:27;97918.56;;;11.18;74.95
15884;BME280;8040;50.254;10.960;2023-11-21T10:21:53;97928.59;;;11.09;73.78
15884;BME280;8040;50.254;10.960;2023-11-21T10:24:19;97924.16;;;11.22;73.82
15884;BME280;8040;50.254;10.960;2023-11-21T10:26:45;97921.94;;;11.24;73.71
15884;BME280;8040;50.254;10.960;2023-11-21T10:29:13;97926.94;;;11.30;73.24
15884;BME280;8040;50.254;10.960;2023-11-21T10:31:42;97932.38;;;11.30;74.35
15884;BME280;8040;50.254;10.960;2023-11-21T10:34:14;97929.16;;;11.28;73.62
15884;BME280;8040;50.254;10.960;2023-11-21T10:36:40;97929.00;;;11.25;72.73
15884;BME280;8040;50.254;10.960;2023-11-21T10:39:05;97931.41;;;11.35;72.44
15884;BME280;8040;50.254;10.960;2023-11-21T10:41:30;97928.28;;;11.41;72.95
15884;BME280;8040;50.254;10.960;2023-11-21T10:43:55;97926.22;;;11.47;72.67
15884;BME280;8040;50.254;10.960;2023-11-21T10:46:21;97930.38;;;11.53;72.61
15884;BME280;8040;50.254;10.960;2023-11-21T10:48:57;97921.03;;;11.59;74.07
15884;BME280;8040;50.254;10.960;2023-11-21T10:51:22;97924.72;;;11.63;73.14
15884;BME280;8040;50.254;10.960;2023-11-21T10:53:51;97916.88;;;11.61;73.72
15884;BME280;8040;50.254;10.960;2023-11-21T10:56:16;97915.78;;;11.71;74.80
15884;BME280;8040;50.254;10.960;2023-11-21T10:58:50;97924.78;;;11.80;75.38
15884;BME280;8040;50.254;10.960;2023-11-21T11:01:19;97920.47;;;11.79;72.83
15884;BME280;8040;50.254;10.960;2023-11-21T11:03:46;97921.13;;;11.84;71.88
15884;BME280;8040;50.254;10.960;2023-11-21T11:06:12;97924.97;;;11.83;70.22
15884;BME280;8040;50.254;10.960;2023-11-21T11:12:01;97921.59;;;11.86;69.85
15884;BME280;8040;50.254;10.960;2023-11-21T11:14:29;97920.16;;;11.89;69.03
15884;BME280;8040;50.254;10.960;2023-11-21T11:16:55;97923.41;;;11.99;69.80
15884;BME280;8040;50.254;10.960;2023-11-21T11:19:21;97924.06;;;12.05;70.59
15884;BME280;8040;50.254;10.960;2023-11-21T11:21:51;97922.94;;;12.06;71.20
15884;BME280;8040;50.254;10.960;2023-11-21T11:29:40;97930.94;;;12.11;68.21
15884;BME280;8040;50.254;10.960;2023-11-21T11:37:29;97931.63;;;12.25;69.69
15884;BME280;8040;50.254;10.960;2023-11-21T11:39:54;97940.59;;;12.25;67.73
15884;BME280;8040;50.254;10.960;2023-11-21T11:44:55;97932.59;;;12.29;68.08
15884;BME280;8040;50.254;10.960;2023-11-21T11:47:28;97937.88;;;12.25;67.73
15884;BME280;8040;50.254;10.960;2023-11-21T11:50:05;97943.31;;;12.25;67.16
15884;BME280;8040;50.254;10.960;2023-11-21T11:52:45;97939.94;;;12.28;68.45
15884;BME280;8040;50.254;10.960;2023-11-21T11:55:20;97941.06;;;12.27;69.51
15884;BME280;8040;50.254;10.960;2023-11-21T11:57:50;97935.28;;;12.20;69.24
15884;BME280;8040;50.254;10.960;2023-11-21T12:00:16;97949.19;;;12.19;68.12
15884;BME280;8040;50.254;10.960;2023-11-21T12:02:47;97939.44;;;12.18;67.37
15884;BME280;8040;50.254;10.960;2023-11-21T12:05:13;97949.34;;;12.14;66.73
15884;BME280;8040;50.254;10.960;2023-11-21T12:07:49;97953.03;;;12.18;67.38
15884;BME280;8040;50.254;10.960;2023-11-21T12:10:15;97952.38;;;12.21;67.69
15884;BME280;8040;50.254;10.960;2023-11-21T12:12:49;97959.63;;;12.25;67.81
15884;BME280;8040;50.254;10.960;2023-11-21T12:15:15;97956.91;;;12.25;67.75
15884;BME280;8040;50.254;10.960;2023-11-21T12:17:41;97963.63;;;12.28;67.28
15884;BME280;8040;50.254;10.960;2023-11-21T12:20:07;97967.28;;;12.23;66.56
15884;BME280;8040;50.254;10.960;2023-11-21T12:25:17;97968.88;;;12.24;64.60
15884;BME280;8040;50.254;10.960;2023-11-21T12:27:47;97967.94;;;12.29;65.68
15884;BME280;8040;50.254;10.960;2023-11-21T12:30:14;97972.88;;;12.27;66.18
15884;BME280;8040;50.254;10.960;2023-11-21T12:32:41;97975.25;;;12.20;67.03
15884;BME280;8040;50.254;10.960;2023-11-21T12:35:08;97972.22;;;12.13;67.30
15884;BME280;8040;50.254;10.960;2023-11-21T12:37:35;97979.25;;;12.14;68.40
15884;BME280;8040;50.254;10.960;2023-11-21T12:40:01;97982.59;;;12.11;67.92
15884;BME280;8040;50.254;10.960;2023-11-21T12:42:26;97981.16;;;12.05;68.81
15884;BME280;8040;50.254;10.960;2023-11-21T12:45:07;97975.22;;;12.03;68.90
15884;BME280;8040;50.254;10.960;2023-11-21T12:47:34;97978.22;;;11.93;69.16
15884;BME280;8040;50.254;10.960;2023-11-21T12:50:01;97982.50;;;11.85;69.19
15884;BME280;8040;50.254;10.960;2023-11-21T12:52:27;97977.38;;;11.84;69.24
15884;BME280;8040;50.254;10.960;2023-11-21T12:54:53;97972.59;;;11.81;70.43
15884;BME280;8040;50.254;10.960;2023-11-21T12:57:18;97968.28;;;11.80;70.93
15884;BME280;8040;50.254;10.960;2023-11-21T12:59:45;97979.28;;;11.75;71.10
15884;BME280;8040;50.254;10.960;2023-11-21T13:02:12;97977.53;;;11.79;71.99
15884;BME280;8040;50.254;10.960;2023-11-21T13:04:39;97987.78;;;11.82;73.03
15884;BME280;8040;50.254;10.960;2023-11-21T13:10:28;97982.16;;;11.78;71.35
15884;BME280;8040;50.254;10.960;2023-11-21T13:13:00;97988.59;;;11.82;71.54
15884;BME280;8040;50.254;10.960;2023-11-21T13:15:28;97992.19;;;11.69;70.44
15884;BME280;8040;50.254;10.960;2023-11-21T13:17:56;97995.22;;;11.68;70.92
15884;BME280;8040;50.254;10.960;2023-11-21T13:20:23;97990.41;;;11.65;71.25
15884;BME280;8040;50.254;10.960;2023-11-21T13:22:53;97984.84;;;11.70;70.82
15884;BME280;8040;50.254;10.960;2023-11-21T13:25:26;97986.75;;;11.69;71.18
15884;BME280;8040;50.254;10.960;2023-11-21T13:27:53;97992.03;;;11.74;70.81